Destinations Tromsø Airport

Tromsø Airport (ENTC / TOS)

Flights to Tromsø Airport

Flight number From ETE Dispatch
SPY-300 EHGG Groningen Airport Eelde 03:10

Flights from Tromsø Airport

Flight number To ETE Dispatch
SPY-301 EHGG Groningen Airport Eelde
About

Tromsø Airport facts

Tromsø Airport is located in Tromso at an elevation of 9.4 meters or 31 feet.

Currently, Speedy Airlines serves 2 flights to and from Tromsø Airport.

Detailed airport info

Route map

Weather

Current weather

METAR

METAR

Metar data retrieved Sunday, 21 July 2024 at 18:55 UTC

ENTC 211820Z 03013KT CAVOK 21/13 Q1011 NOSIG RMK WIND 2600FT 14009KT
Wind Temperature
13 kt 21c